Time;durP1;ratioP1;P1;durP2;ratioP2;P2;SDS_P1;SDS_P2;PMS_P1;PMS_P2;Temp;Humidity;BMP_temperature;BMP_pressure;BME280_temperature;BME280_humidity;BME280_pressure;Samples;Min_cycle;Max_cycle;Signal;HPM_P1;HPM_P2
2023/09/15 05:21:21;;;;;;;;;7.33;7.33;;;;;21.96;55.54;101278.72;5072010;27;45720;-80
2023/09/15 05:23:47;;;;;;;;;8.67;7.00;;;;;22.17;56.10;101282.22;5066625;28;45504;-80
2023/09/15 05:26:12;;;;;;;;;9.00;7.67;;;;;22.41;55.42;101281.75;5073199;27;59632;-80
2023/09/15 05:28:37;;;;;;;;;7.33;6.67;;;;;22.64;54.96;101282.25;5058205;28;45537;-81
2023/09/15 05:31:03;;;;;;;;;5.67;5.67;;;;;22.90;54.46;101278.81;5070592;27;53528;-78
2023/09/15 05:33:28;;;;;;;;;10.33;9.00;;;;;23.17;53.59;101281.63;5057855;27;45697;-80
2023/09/15 05:35:57;;;;;;;;;7.67;7.67;;;;;23.42;53.34;101285.47;5068888;28;45441;-82
2023/09/15 05:38:23;;;;;;;;;9.67;7.00;;;;;23.64;52.70;101279.75;5064637;28;45521;-81
2023/09/15 05:40:49;;;;;;;;;7.33;7.33;;;;;23.91;52.57;101284.19;5068207;28;45654;-85
2023/09/15 05:43:16;;;;;;;;;7.00;6.67;;;;;24.07;52.05;101267.19;5059961;28;45764;-83
2023/09/15 05:45:42;;;;;;;;;10.00;9.00;;;;;24.32;51.67;101274.66;5065412;27;45588;-83
2023/09/15 05:48:12;;;;;;;;;10.67;9.00;;;;;24.53;51.20;101273.41;5063398;28;45521;-82
2023/09/15 05:50:38;;;;;;;;;7.33;7.33;;;;;24.70;51.01;101272.47;5061925;28;46165;-82
2023/09/15 05:53:03;;;;;;;;;9.00;7.67;;;;;24.88;50.46;101276.13;5061408;28;45426;-83
2023/09/15 05:55:28;;;;;;;;;6.00;6.00;;;;;25.03;49.70;101276.31;5064975;28;46858;-83
2023/09/15 05:57:53;;;;;;;;;8.00;7.33;;;;;25.16;49.25;101281.28;5066044;28;49183;-77
2023/09/15 06:00:19;;;;;;;;;6.00;5.00;;;;;25.25;48.91;101272.97;5073505;27;48338;-80
2023/09/15 06:02:44;;;;;;;;;7.00;7.00;;;;;25.37;48.58;101273.50;5066147;28;48696;-80
2023/09/15 06:05:09;;;;;;;;;6.00;6.00;;;;;25.50;48.75;101281.16;5066924;28;51801;-79
2023/09/15 06:07:36;;;;;;;;;9.33;6.67;;;;;25.59;48.28;101273.03;5061274;28;45631;-80
2023/09/15 06:10:01;;;;;;;;;7.33;7.00;;;;;25.68;48.23;101274.75;5062939;28;46193;-77
2023/09/15 06:12:26;;;;;;;;;10.67;8.00;;;;;25.77;48.50;101270.13;5058820;28;50486;-78
2023/09/15 06:14:55;;;;;;;;;7.00;6.33;;;;;25.85;47.91;101272.88;5067967;28;45494;-77
2023/09/15 06:17:21;;;;;;;;;5.67;5.67;;;;;25.92;48.03;101276.56;5065461;28;45468;-77
2023/09/15 06:19:46;;;;;;;;;7.67;7.67;;;;;25.99;48.09;101273.19;5068350;27;51710;-77
2023/09/15 06:22:12;;;;;;;;;8.67;6.33;;;;;26.02;48.06;101268.25;5085950;27;45383;-78
2023/09/15 06:24:37;;;;;;;;;8.00;8.00;;;;;26.11;47.93;101277.22;5089131;27;45387;-77
2023/09/15 06:27:03;;;;;;;;;6.67;5.00;;;;;26.20;47.42;101282.66;5088216;27;46460;-78
2023/09/15 06:29:28;;;;;;;;;7.67;5.67;;;;;26.25;47.38;101281.16;5081933;27;45509;-78
2023/09/15 06:31:53;;;;;;;;;7.67;7.00;;;;;26.26;47.39;101266.53;5072127;27;45377;-76
2023/09/15 06:34:19;;;;;;;;;10.00;7.00;;;;;26.32;46.59;101275.84;5066598;28;45648;-77
2023/09/15 06:36:44;;;;;;;;;8.00;8.00;;;;;26.28;45.35;101269.91;5073487;28;52488;-76
2023/09/15 06:39:09;;;;;;;;;10.00;8.33;;;;;26.20;45.23;101269.91;5066186;27;51347;-75
2023/09/15 06:41:35;;;;;;;;;8.33;8.33;;;;;26.12;45.02;101272.66;5072424;27;45485;-76
2023/09/15 06:44:00;;;;;;;;;8.67;8.33;;;;;26.01;45.21;101266.56;5063410;28;45438;-76
2023/09/15 06:46:26;;;;;;;;;5.00;5.00;;;;;25.92;45.56;101267.59;5069164;28;48182;-75
2023/09/15 06:48:52;;;;;;;;;9.67;7.67;;;;;25.85;45.82;101272.88;5068101;28;46127;-77
2023/09/15 06:51:17;;;;;;;;;7.33;6.67;;;;;25.79;45.86;101270.84;5074181;28;45444;-76
2023/09/15 06:53:43;;;;;;;;;8.00;8.00;;;;;25.75;45.99;101273.03;5062696;28;45489;-76
2023/09/15 06:56:08;;;;;;;;;8.00;8.00;;;;;25.76;46.51;101269.28;5066308;28;45557;-77
2023/09/15 06:58:33;;;;;;;;;7.00;7.00;;;;;25.82;47.13;101273.19;5063486;28;49091;-77
2023/09/15 07:00:59;;;;;;;;;7.00;7.00;;;;;25.88;46.70;101272.50;5066819;28;45669;-78
2023/09/15 07:03:26;;;;;;;;;7.00;6.33;;;;;25.95;47.18;101274.56;5071111;28;45478;-78
2023/09/15 07:05:52;;;;;;;;;7.67;6.67;;;;;26.02;46.48;101275.53;5070965;28;45310;-77
2023/09/15 07:08:17;;;;;;;;;7.00;7.00;;;;;26.08;46.68;101274.00;5066238;28;46390;-77
2023/09/15 07:10:43;;;;;;;;;8.33;8.00;;;;;26.11;46.70;101271.78;5072298;28;45552;-78
2023/09/15 07:13:10;;;;;;;;;7.00;7.00;;;;;26.14;46.22;101265.16;5067829;28;45521;-78
2023/09/15 07:15:35;;;;;;;;;9.00;7.67;;;;;26.20;45.75;101274.50;5051309;28;45506;-79
2023/09/15 07:18:03;;;;;;;;;8.33;7.00;;;;;26.20;46.25;101263.63;5072003;28;45996;-76
2023/09/15 07:20:29;;;;;;;;;7.00;7.00;;;;;26.25;46.21;101263.97;5070899;27;45751;-76
2023/09/15 07:22:54;;;;;;;;;8.33;7.00;;;;;26.27;45.42;101260.06;5067946;28;45423;-75
2023/09/15 07:25:20;;;;;;;;;7.33;6.00;;;;;26.31;45.36;101258.69;5070468;28;53826;-75
2023/09/15 07:27:46;;;;;;;;;8.00;7.00;;;;;26.34;45.18;101254.75;5072015;28;45524;-75
2023/09/15 07:30:12;;;;;;;;;8.33;8.00;;;;;26.37;44.94;101259.88;5065035;28;45641;-78
2023/09/15 07:32:39;;;;;;;;;9.33;7.33;;;;;26.38;45.75;101256.13;5073125;28;45476;-77
2023/09/15 07:35:04;;;;;;;;;6.33;6.33;;;;;26.39;45.39;101252.38;5070052;28;45434;-77
2023/09/15 07:37:30;;;;;;;;;10.67;8.00;;;;;26.42;45.45;101257.47;5066419;28;45634;-77
2023/09/15 07:39:56;;;;;;;;;8.00;6.67;;;;;26.44;44.97;101255.41;5063898;28;45490;-77
2023/09/15 07:42:21;;;;;;;;;8.67;6.67;;;;;26.47;45.23;101253.34;5072433;28;45401;-77
2023/09/15 07:44:46;;;;;;;;;9.00;8.00;;;;;26.49;45.34;101254.03;5058126;28;45740;-77
2023/09/15 07:47:14;;;;;;;;;6.00;6.00;;;;;26.49;44.69;101249.44;5066053;28;45806;-78
2023/09/15 07:49:39;;;;;;;;;10.00;9.33;;;;;26.48;44.92;101242.28;5071525;28;45395;-77
2023/09/15 07:52:05;;;;;;;;;9.00;7.00;;;;;26.52;45.08;101245.53;5065776;28;46487;-77
2023/09/15 07:54:30;;;;;;;;;7.00;7.00;;;;;26.53;45.12;101248.03;5072551;28;45776;-78
2023/09/15 07:56:56;;;;;;;;;7.00;6.33;;;;;26.54;44.67;101240.72;5072347;28;45313;-77
2023/09/15 07:59:21;;;;;;;;;5.67;5.67;;;;;26.55;44.87;101237.84;5068622;28;45473;-77
2023/09/15 08:01:46;;;;;;;;;6.67;6.33;;;;;26.60;44.30;101241.91;5068579;28;45545;-77
2023/09/15 08:04:12;;;;;;;;;6.67;6.67;;;;;26.60;44.46;101237.28;5071643;28;53046;-76
2023/09/15 08:06:37;;;;;;;;;5.00;5.00;;;;;26.63;44.56;101238.81;5061905;28;47012;-76
2023/09/15 08:09:04;;;;;;;;;6.33;6.33;;;;;26.63;43.99;101231.50;5066472;28;47185;-76
2023/09/15 08:11:34;;;;;;;;;7.00;7.00;;;;;26.65;44.16;101229.44;5072157;28;45588;-75
2023/09/15 08:14:00;;;;;;;;;8.00;7.00;;;;;26.69;44.81;101224.50;5067409;28;45491;-76
2023/09/15 08:16:25;;;;;;;;;5.67;5.67;;;;;26.68;44.46;101225.50;5062553;28;47319;-78
2023/09/15 08:18:50;;;;;;;;;7.00;7.00;;;;;26.70;44.18;101232.47;5061141;28;45586;-78
2023/09/15 08:21:16;;;;;;;;;7.67;7.67;;;;;26.74;44.51;101234.84;5071366;28;45742;-78
2023/09/15 08:23:41;;;;;;;;;7.00;7.00;;;;;26.74;44.55;101232.13;5073461;28;45478;-79
2023/09/15 08:26:06;;;;;;;;;8.33;7.67;;;;;26.78;44.33;101228.03;5080278;27;47244;-78
2023/09/15 08:28:32;;;;;;;;;8.67;8.00;;;;;26.78;44.25;101223.44;5066411;28;45570;-78
2023/09/15 08:30:57;;;;;;;;;6.67;6.00;;;;;26.82;44.09;101229.38;5069807;28;47908;-79
2023/09/15 08:33:22;;;;;;;;;6.33;6.33;;;;;26.88;44.35;101233.22;5072862;28;48095;-79
2023/09/15 08:35:47;;;;;;;;;7.33;7.00;;;;;26.90;44.54;101231.19;5067163;28;51784;-79
2023/09/15 08:38:13;;;;;;;;;6.00;5.00;;;;;26.93;44.44;101233.56;5048210;28;45810;-76
2023/09/15 08:41:01;;;;;;;;;7.00;7.00;;;;;26.95;43.79;101234.25;5058986;27;45633;-76
2023/09/15 08:43:27;;;;;;;;;6.00;6.00;;;;;26.96;43.87;101233.22;5061773;27;45742;-77
2023/09/15 08:45:52;;;;;;;;;8.00;7.67;;;;;26.96;44.31;101231.34;5060109;27;46035;-76
2023/09/15 08:48:24;;;;;;;;;8.00;8.00;;;;;27.01;44.42;101235.41;5066098;27;45543;-78
2023/09/15 08:50:51;;;;;;;;;6.00;6.00;;;;;27.04;44.03;101246.78;5071358;27;45618;-85
2023/09/15 08:53:17;;;;;;;;;6.67;6.00;;;;;27.06;43.97;101235.72;5070613;27;45473;-84
2023/09/15 08:55:43;;;;;;;;;9.67;5.33;;;;;27.10;44.21;101237.88;5061740;28;46249;-81
2023/09/15 08:58:09;;;;;;;;;9.67;8.67;;;;;27.11;43.72;101241.47;5060285;28;45458;-85
2023/09/15 09:00:36;;;;;;;;;10.00;7.33;;;;;27.15;44.03;101234.63;5066956;28;45542;-87
2023/09/15 09:03:03;;;;;;;;;7.33;7.33;;;;;27.13;43.90;101231.22;5071362;28;45452;-85
2023/09/15 09:05:30;;;;;;;;;6.67;6.67;;;;;27.17;43.83;101235.28;5072244;28;45999;-78
2023/09/15 09:07:59;;;;;;;;;7.33;5.67;;;;;27.16;44.08;101233.59;5070015;28;46154;-79
2023/09/15 09:10:25;;;;;;;;;4.33;4.33;;;;;27.16;44.16;101222.69;5060109;28;45392;-80
2023/09/15 09:12:50;;;;;;;;;6.33;6.33;;;;;27.19;43.67;101227.81;5063274;28;45914;-80
2023/09/15 09:15:17;;;;;;;;;7.00;6.00;;;;;27.17;43.62;101221.66;5068420;28;45475;-84
2023/09/15 09:17:42;;;;;;;;;7.33;7.33;;;;;27.20;43.66;101226.75;5067324;28;45842;-84
2023/09/15 09:20:08;;;;;;;;;8.00;8.00;;;;;27.21;43.50;101222.16;5073052;28;45403;-83
2023/09/15 09:22:34;;;;;;;;;5.33;5.33;;;;;27.22;43.86;101221.13;5069702;28;45400;-82
2023/09/15 09:25:00;;;;;;;;;5.33;5.33;;;;;27.23;44.26;101212.75;5068540;28;46200;-78
2023/09/15 09:27:35;;;;;;;;;6.00;6.00;;;;;27.26;43.68;101214.28;5072256;28;45491;-80
2023/09/15 09:30:01;;;;;;;;;7.00;7.00;;;;;27.27;43.66;101215.13;5071778;28;53150;-83
2023/09/15 09:32:26;;;;;;;;;7.67;7.67;;;;;27.27;43.79;101209.69;5067768;28;45597;-77
2023/09/15 09:34:53;;;;;;;;;7.00;7.00;;;;;27.29;44.37;101205.75;5060753;28;46538;-81
2023/09/15 09:37:24;;;;;;;;;7.00;6.67;;;;;27.30;44.46;101207.44;5067237;28;45442;-81
2023/09/15 09:39:51;;;;;;;;;5.33;5.33;;;;;27.35;43.75;101209.63;5066993;28;45498;-82
2023/09/15 09:42:17;;;;;;;;;6.33;6.33;;;;;27.36;44.09;101204.00;5069131;28;45558;-82
2023/09/15 09:44:43;;;;;;;;;6.33;6.33;;;;;27.40;44.33;101209.06;5067775;28;46798;-80
2023/09/15 09:47:09;;;;;;;;;6.67;6.67;;;;;27.43;44.41;101209.53;5048030;28;45453;-82
2023/09/15 09:49:35;;;;;;;;;8.00;6.33;;;;;27.45;44.16;101202.03;5061663;28;45395;-81
2023/09/15 09:52:03;;;;;;;;;7.00;7.00;;;;;27.47;44.02;101207.31;5070379;28;45559;-82
2023/09/15 09:54:31;;;;;;;;;5.00;5.00;;;;;27.49;44.34;101207.94;5069026;28;46812;-78
2023/09/15 09:56:57;;;;;;;;;5.00;5.00;;;;;27.52;43.75;101202.13;5071596;28;45482;-80
2023/09/15 09:59:22;;;;;;;;;6.00;6.00;;;;;27.54;43.73;101201.97;5072918;28;45608;-81
2023/09/15 10:01:48;;;;;;;;;6.67;6.67;;;;;27.55;44.42;101200.94;5068412;28;45552;-81
2023/09/15 10:04:13;;;;;;;;;6.33;6.33;;;;;27.55;43.72;101182.66;5071002;28;45327;-79
2023/09/15 10:06:38;;;;;;;;;5.67;5.67;;;;;27.58;44.17;101186.91;5069333;28;45440;-81
2023/09/15 10:09:09;;;;;;;;;5.67;5.67;;;;;27.59;44.55;101181.28;5070412;28;45362;-80
2023/09/15 10:11:35;;;;;;;;;6.00;6.00;;;;;27.61;43.78;101183.84;5074883;27;45462;-82
2023/09/15 10:14:06;;;;;;;;;5.00;5.00;;;;;27.64;44.40;101183.50;5056110;28;46133;-81
2023/09/15 10:16:32;;;;;;;;;6.33;6.33;;;;;27.65;44.46;101181.59;5064527;28;45416;-81
2023/09/15 10:18:59;;;;;;;;;5.00;5.00;;;;;27.67;44.40;101182.25;5072627;28;45412;-78
2023/09/15 10:21:26;;;;;;;;;7.33;7.33;;;;;27.69;44.55;101175.59;5057692;28;45572;-76
2023/09/15 10:24:06;;;;;;;;;8.00;7.67;;;;;27.71;44.23;101180.88;5062890;28;45982;-77
2023/09/15 10:26:32;;;;;;;;;6.67;6.00;;;;;27.71;43.66;101167.22;5062519;28;45440;-80
2023/09/15 10:28:57;;;;;;;;;5.33;5.33;;;;;27.74;44.17;101166.84;5071164;28;45538;-79
2023/09/15 10:31:23;;;;;;;;;5.33;5.33;;;;;27.75;43.97;101166.66;5067096;28;45996;-75
2023/09/15 10:33:50;;;;;;;;;8.67;7.00;;;;;27.76;43.64;101159.34;5069729;28;45471;-79
2023/09/15 10:36:15;;;;;;;;;12.33;8.00;;;;;27.81;43.60;101154.16;5072199;28;45451;-78
2023/09/15 10:38:41;;;;;;;;;9.67;6.67;;;;;27.82;43.46;101146.81;5068465;28;45458;-80
2023/09/15 10:41:09;;;;;;;;;5.00;5.00;;;;;27.85;43.66;101143.72;5069670;27;45429;-78
2023/09/15 10:43:34;;;;;;;;;6.00;6.00;;;;;27.85;43.87;101144.56;5074854;28;46337;-77
2023/09/15 10:46:06;;;;;;;;;6.00;6.00;;;;;27.86;43.98;101137.22;5069347;28;52381;-77
2023/09/15 10:48:47;;;;;;;;;5.33;5.33;;;;;27.91;44.07;101136.66;5067733;28;45515;-79
2023/09/15 10:51:18;;;;;;;;;7.00;7.00;;;;;27.91;44.25;101129.31;5050485;28;45601;-77
2023/09/15 10:53:49;;;;;;;;;8.00;7.00;;;;;27.96;43.33;101132.31;5058539;28;47232;-81
2023/09/15 10:56:18;;;;;;;;;8.33;7.00;;;;;27.99;43.55;101131.94;5064219;27;45592;-80
2023/09/15 10:58:47;;;;;;;;;5.00;5.00;;;;;28.04;43.82;101133.28;5066146;27;45479;-80
2023/09/15 11:01:13;;;;;;;;;6.33;5.00;;;;;28.06;43.37;101126.59;5063958;27;46825;-80
2023/09/15 11:03:38;;;;;;;;;7.67;6.33;;;;;28.09;43.40;101122.63;5065942;27;46259;-80
2023/09/15 11:06:10;;;;;;;;;7.00;6.00;;;;;28.12;43.66;101116.81;5059835;27;46173;-82
2023/09/15 11:08:36;;;;;;;;;7.33;7.00;;;;;28.14;43.08;101118.31;5062023;27;45811;-82
2023/09/15 11:11:10;;;;;;;;;9.00;8.00;;;;;28.17;43.17;101108.03;5061470;27;45717;-82
2023/09/15 11:13:40;;;;;;;;;4.00;4.00;;;;;28.19;42.86;101105.97;5060512;28;46052;-83
2023/09/15 11:16:08;;;;;;;;;5.33;5.33;;;;;28.20;43.31;101099.47;5062318;28;45424;-84
2023/09/15 11:18:34;;;;;;;;;8.00;6.33;;;;;28.20;43.42;101102.19;5062342;27;45833;-85
2023/09/15 11:21:01;;;;;;;;;6.67;6.33;;;;;28.20;42.97;101091.28;5059195;28;45534;-83
2023/09/15 11:23:26;;;;;;;;;5.00;5.00;;;;;28.21;43.21;101091.09;5059573;28;46115;-80
2023/09/15 11:26:03;;;;;;;;;8.33;5.33;;;;;28.23;43.24;101089.00;5064630;28;45894;-83
2023/09/15 11:28:36;;;;;;;;;6.67;6.67;;;;;28.26;43.09;101087.81;5066469;27;45580;-82
2023/09/15 11:31:05;;;;;;;;;8.00;8.00;;;;;28.26;43.23;101085.94;5071476;28;45723;-83
2023/09/15 11:33:31;;;;;;;;;5.33;4.00;;;;;28.24;42.97;101079.81;5064791;28;46068;-80
2023/09/15 11:35:57;;;;;;;;;4.67;4.67;;;;;28.24;42.97;101077.06;5074038;28;45531;-81
2023/09/15 11:38:23;;;;;;;;;7.67;6.67;;;;;28.24;43.02;101077.06;5073443;28;45433;-81
2023/09/15 11:40:50;;;;;;;;;5.33;5.33;;;;;28.24;42.90;101077.06;5071558;28;45442;-81
2023/09/15 11:43:17;;;;;;;;;7.33;5.33;;;;;28.24;43.07;101068.88;5074718;28;46338;-80
2023/09/15 11:45:43;;;;;;;;;7.33;7.33;;;;;28.24;42.85;101066.16;5069671;28;45431;-84
2023/09/15 11:48:11;;;;;;;;;6.00;6.00;;;;;28.25;42.82;101069.75;5070080;28;45489;-84
2023/09/15 11:50:36;;;;;;;;;6.33;5.00;;;;;28.28;43.32;101070.19;5074608;28;45454;-82
2023/09/15 11:53:03;;;;;;;;;6.00;4.33;;;;;28.29;43.33;101065.59;5073352;28;45929;-82
2023/09/15 11:55:29;;;;;;;;;4.67;4.67;;;;;28.31;43.15;101074.44;5065208;28;45738;-81
2023/09/15 11:57:56;;;;;;;;;6.00;5.00;;;;;28.31;43.26;101060.78;5050472;27;45546;-81
2023/09/15 12:00:24;;;;;;;;;6.67;6.67;;;;;28.31;43.12;101060.78;5058479;28;45563;-80
2023/09/15 12:02:52;;;;;;;;;8.00;5.33;;;;;28.33;43.18;101053.25;5066470;28;45815;-80
2023/09/15 12:05:20;;;;;;;;;7.00;5.00;;;;;28.37;43.14;101059.16;5063989;28;47480;-85
2023/09/15 12:07:47;;;;;;;;;8.00;6.00;;;;;28.37;43.15;101051.81;5062223;28;46015;-78
2023/09/15 12:10:14;;;;;;;;;7.00;7.00;;;;;28.41;43.04;101052.28;5061650;28;45502;-81
2023/09/15 12:12:39;;;;;;;;;6.00;6.00;;;;;28.44;42.98;101051.88;5069029;28;46484;-79
2023/09/15 12:15:06;;;;;;;;;4.67;4.33;;;;;28.46;42.60;101038.91;5063732;28;45559;-77
2023/09/15 12:17:33;;;;;;;;;6.00;6.00;;;;;28.45;43.38;101036.34;5051330;28;46108;-79
2023/09/15 12:19:59;;;;;;;;;4.00;4.00;;;;;28.46;43.41;101030.72;5063229;28;45518;-77
2023/09/15 12:22:52;;;;;;;;;6.00;6.00;;;;;28.47;43.10;101037.84;5069143;28;46953;-78
2023/09/15 12:25:18;;;;;;;;;4.00;4.00;;;;;28.48;42.79;101034.06;5060079;28;45491;-76
2023/09/15 12:27:43;;;;;;;;;4.67;4.67;;;;;28.48;42.75;101027.78;5068194;27;45474;-80
2023/09/15 12:30:12;;;;;;;;;6.33;6.00;;;;;28.48;42.93;101022.31;5062579;28;45532;-79
2023/09/15 12:32:38;;;;;;;;;5.33;5.33;;;;;28.47;43.42;101013.28;5070854;28;45810;-79
2023/09/15 12:35:11;;;;;;;;;7.33;5.67;;;;;28.48;43.24;101014.13;5073517;28;45611;-78
2023/09/15 12:37:41;;;;;;;;;7.33;6.00;;;;;28.49;42.95;101018.56;5051293;28;45548;-77
2023/09/15 12:40:07;;;;;;;;;4.33;4.33;;;;;28.47;43.57;101010.53;5072464;28;45435;-77
2023/09/15 12:42:33;;;;;;;;;7.33;7.33;;;;;28.48;43.35;101014.13;5072779;28;46456;-78
2023/09/15 12:44:58;;;;;;;;;5.00;5.00;;;;;28.48;43.44;101014.97;5072418;28;45372;-78
2023/09/15 12:47:23;;;;;;;;;7.67;6.33;;;;;28.48;43.43;101004.03;5073465;28;45531;-79
2023/09/15 12:49:49;;;;;;;;;7.67;6.00;;;;;28.49;43.44;101002.16;5058256;28;51453;-82
2023/09/15 12:52:15;;;;;;;;;7.00;6.00;;;;;28.50;43.09;100995.66;5057798;28;55112;-81
2023/09/15 12:54:40;;;;;;;;;5.67;5.00;;;;;28.50;42.88;100993.78;5072631;28;45757;-80
2023/09/15 12:57:06;;;;;;;;;5.67;5.67;;;;;28.48;43.27;100993.13;5047009;28;46270;-77
2023/09/15 12:59:31;;;;;;;;;2.00;2.00;;;;;28.48;42.87;100992.28;5057105;28;45665;-81
2023/09/15 13:01:57;;;;;;;;;5.33;5.00;;;;;28.49;43.53;100989.34;5061053;28;45947;-82
2023/09/15 13:04:24;;;;;;;;;4.67;4.33;;;;;28.50;42.97;100987.47;5057055;28;45490;-81
2023/09/15 13:06:50;;;;;;;;;5.67;5.67;;;;;28.49;42.90;100980.31;5059839;28;45750;-81
2023/09/15 13:09:16;;;;;;;;;7.00;6.00;;;;;28.48;43.31;100976.75;5061340;27;45480;-80
2023/09/15 13:11:41;;;;;;;;;4.67;4.67;;;;;28.49;43.22;100972.13;5059553;27;47483;-79
2023/09/15 13:14:07;;;;;;;;;7.00;6.00;;;;;28.51;43.08;100972.78;5061036;28;45501;-81
2023/09/15 13:16:33;;;;;;;;;6.33;6.33;;;;;28.50;42.64;100974.69;5059688;28;46277;-81
2023/09/15 13:18:59;;;;;;;;;4.00;4.00;;;;;28.49;43.55;100962.03;5062341;28;46145;-81
2023/09/15 13:21:24;;;;;;;;;4.00;4.00;;;;;28.50;42.94;100966.50;5058895;28;46505;-81
2023/09/15 13:23:50;;;;;;;;;5.00;5.00;;;;;28.51;42.77;100970.03;5059577;28;45716;-82
2023/09/15 13:26:15;;;;;;;;;5.33;4.00;;;;;28.53;43.15;100965.25;5063726;28;45426;-81
2023/09/15 13:28:41;;;;;;;;;7.33;6.67;;;;;28.53;42.91;100965.25;5058070;28;45436;-78
2023/09/15 13:31:07;;;;;;;;;5.67;5.67;;;;;28.54;42.92;100956.00;5065418;28;47967;-77
2023/09/15 13:33:32;;;;;;;;;7.00;4.67;;;;;28.53;42.63;100957.06;5072378;28;45355;-78
2023/09/15 13:35:58;;;;;;;;;4.00;4.00;;;;;28.53;43.41;100943.41;5071701;28;45626;-78
2023/09/15 13:38:23;;;;;;;;;5.00;5.00;;;;;28.56;43.30;100944.91;5065956;28;45608;-78
2023/09/15 13:40:48;;;;;;;;;4.33;4.33;;;;;28.57;42.92;100941.13;5067889;28;53321;-79
2023/09/15 13:43:15;;;;;;;;;5.00;5.00;;;;;28.57;43.19;100936.47;5073342;28;45479;-79
2023/09/15 13:45:51;;;;;;;;;5.00;4.67;;;;;28.58;42.92;100931.88;5050393;28;45838;-81
2023/09/15 13:48:17;;;;;;;;;6.00;4.67;;;;;28.59;43.10;100928.94;5065726;28;45456;-77
2023/09/15 13:50:43;;;;;;;;;4.67;4.00;;;;;28.59;42.90;100928.94;5071959;28;45946;-75
2023/09/15 13:53:08;;;;;;;;;5.67;5.67;;;;;28.61;42.93;100928.75;5068859;27;45728;-87
2023/09/15 13:55:33;;;;;;;;;5.00;3.33;;;;;28.64;42.44;100922.88;5046139;28;45375;-76
2023/09/15 13:57:59;;;;;;;;;4.67;4.67;;;;;28.63;42.88;100923.94;5071701;27;46855;-79
2023/09/15 14:00:24;;;;;;;;;5.33;5.00;;;;;28.65;43.13;100911.75;5071893;28;46663;-78
2023/09/15 14:02:49;;;;;;;;;4.33;4.33;;;;;28.66;42.75;100916.19;5069422;28;45407;-77
2023/09/15 14:05:15;;;;;;;;;5.00;5.00;;;;;28.70;42.66;100919.38;5070338;28;45450;-78
2023/09/15 14:07:40;;;;;;;;;5.67;5.33;;;;;28.72;42.98;100913.72;5070637;28;45858;-81
2023/09/15 14:10:06;;;;;;;;;4.00;4.00;;;;;28.72;42.57;100914.53;5074796;28;46049;-79
2023/09/15 14:12:31;;;;;;;;;4.00;4.00;;;;;28.72;42.84;100905.53;5065167;28;45476;-80
2023/09/15 14:14:56;;;;;;;;;5.00;5.00;;;;;28.69;42.85;100906.75;5075410;28;45706;-81
2023/09/15 14:17:23;;;;;;;;;6.33;5.00;;;;;28.72;42.80;100908.25;5072439;28;45460;-81
2023/09/15 14:19:49;;;;;;;;;4.67;4.00;;;;;28.71;42.36;100903.81;5064927;28;45755;-82
2023/09/15 14:22:14;;;;;;;;;5.00;5.00;;;;;28.71;42.88;100904.66;5067452;28;45523;-80
2023/09/15 14:24:39;;;;;;;;;5.33;5.00;;;;;28.66;43.05;100898.97;5051578;28;45439;-81
2023/09/15 14:27:05;;;;;;;;;5.33;4.67;;;;;28.70;42.79;100899.41;5069807;28;45598;-78
2023/09/15 14:29:31;;;;;;;;;3.00;3.00;;;;;28.69;42.23;100893.09;5061016;28;45466;-76
2023/09/15 14:32:00;;;;;;;;;4.00;4.00;;;;;28.70;42.26;100891.22;5068874;28;48427;-76
2023/09/15 14:34:25;;;;;;;;;5.00;5.00;;;;;28.66;42.64;100886.13;5064022;28;45439;-84
2023/09/15 14:36:50;;;;;;;;;4.33;4.33;;;;;28.66;42.43;100894.34;5072784;28;45886;-80
2023/09/15 14:39:16;;;;;;;;;4.33;4.00;;;;;28.67;42.48;100893.31;5058959;28;46051;-85
2023/09/15 14:41:41;;;;;;;;;5.00;4.00;;;;;28.66;42.49;100879.84;5071090;28;45481;-83
2023/09/15 14:44:15;;;;;;;;;4.00;4.00;;;;;28.67;42.24;100887.00;5071821;27;45385;-78
2023/09/15 14:46:41;;;;;;;;;4.33;4.00;;;;;28.67;42.18;100878.81;5061299;28;45526;-79
2023/09/15 14:49:06;;;;;;;;;4.00;4.00;;;;;28.67;42.65;100876.94;5070308;28;57721;-78
2023/09/15 14:51:32;;;;;;;;;6.33;5.00;;;;;28.67;42.25;100874.19;5069977;28;45451;-79
2023/09/15 14:53:57;;;;;;;;;3.33;3.33;;;;;28.70;42.20;100875.69;5073304;28;45463;-82
2023/09/15 14:56:23;;;;;;;;;4.00;4.00;;;;;28.70;42.39;100875.69;5060492;28;45360;-77
2023/09/15 14:58:49;;;;;;;;;5.00;5.00;;;;;28.66;42.38;100869.75;5036181;28;46906;-83
2023/09/15 15:01:14;;;;;;;;;5.67;3.67;;;;;28.68;42.24;100875.03;5066056;28;46214;-86
2023/09/15 15:03:39;;;;;;;;;7.00;4.00;;;;;28.66;41.98;100861.56;5059965;28;46045;-77
2023/09/15 15:06:05;;;;;;;;;5.00;5.00;;;;;28.67;42.51;100868.72;5066409;28;47271;-78
2023/09/15 15:08:30;;;;;;;;;5.00;5.00;;;;;28.69;42.13;100862.22;5066544;28;45664;-75
2023/09/15 15:10:55;;;;;;;;;3.33;3.33;;;;;28.66;41.97;100860.75;5066352;28;45466;-81
2023/09/15 15:13:21;;;;;;;;;3.00;3.00;;;;;28.69;41.96;100868.50;5062745;28;53852;-79
2023/09/15 15:15:46;;;;;;;;;6.33;5.00;;;;;28.69;41.99;100860.31;5063716;28;47872;-82
2023/09/15 15:18:19;;;;;;;;;3.67;3.67;;;;;28.70;42.47;100858.44;5067461;28;45447;-83
2023/09/15 15:20:46;;;;;;;;;5.00;5.00;;;;;28.70;41.79;100859.28;5068064;27;45472;-83
2023/09/15 15:23:11;;;;;;;;;4.00;4.00;;;;;28.71;41.96;100854.66;5072201;28;45387;-81
2023/09/15 15:25:37;;;;;;;;;4.00;4.00;;;;;28.70;41.73;100845.66;5054861;28;45799;-82
2023/09/15 15:28:02;;;;;;;;;8.00;5.00;;;;;28.70;42.41;100848.38;5055236;28;46678;-82
2023/09/15 15:30:30;;;;;;;;;5.00;5.00;;;;;28.71;41.95;100850.06;5055944;28;45998;-82
2023/09/15 15:32:56;;;;;;;;;4.00;4.00;;;;;28.71;42.67;100844.59;5063399;28;45571;-82
2023/09/15 15:35:22;;;;;;;;;3.33;3.33;;;;;28.70;42.16;100839.31;5036593;28;45847;-84
2023/09/15 15:37:47;;;;;;;;;4.33;4.33;;;;;28.70;42.44;100842.91;5053723;28;55687;-84
2023/09/15 15:40:13;;;;;;;;;6.00;5.00;;;;;28.69;41.88;100846.66;5051317;28;45547;-78
